Time;durP1;ratioP1;P1;durP2;ratioP2;P2;SDS_P1;SDS_P2;PMS_P1;PMS_P2;Temp;Humidity;BMP_temperature;BMP_pressure;BME280_temperature;BME280_humidity;BME280_pressure;Samples;Min_cycle;Max_cycle;Signal;HPM_P1;HPM_P2
2024/04/12 00:02:02;;;;;;;2.73;1.43;;;14.60;99.90;;;;;;5446707;26;20240;-71
2024/04/12 00:04:31;;;;;;;1.97;1.53;;;14.60;99.90;;;;;;5447260;26;20267;-72
2024/04/12 00:07:00;;;;;;;5.63;2.00;;;14.60;99.90;;;;;;5442700;26;20283;-71
2024/04/12 00:09:29;;;;;;;4.40;1.80;;;14.60;99.90;;;;;;5446866;26;20308;-72
2024/04/12 00:11:56;;;;;;;3.87;1.70;;;14.60;99.90;;;;;;5438977;26;20230;-72
2024/04/12 00:14:26;;;;;;;2.47;1.50;;;14.60;99.90;;;;;;5411063;26;20233;-72
2024/04/12 00:16:52;;;;;;;1.80;1.60;;;14.50;99.90;;;;;;5411045;26;20272;-71
2024/04/12 00:19:23;;;;;;;1.87;1.60;;;14.50;99.90;;;;;;5435862;26;20282;-73
2024/04/12 00:21:52;;;;;;;1.83;1.67;;;14.50;99.90;;;;;;5441421;26;20237;-74
2024/04/12 00:24:25;;;;;;;2.03;1.60;;;14.50;99.90;;;;;;5446499;26;20707;-73
2024/04/12 00:26:53;;;;;;;3.80;1.53;;;14.50;99.90;;;;;;5446540;26;20232;-74
2024/04/12 00:29:30;;;;;;;4.60;1.57;;;14.40;99.90;;;;;;5446512;26;20271;-73
2024/04/12 00:32:03;;;;;;;2.27;1.90;;;14.40;99.90;;;;;;5443340;26;20339;-72
2024/04/12 00:34:37;;;;;;;3.07;1.80;;;14.20;99.90;;;;;;5425422;26;20279;-71
2024/04/12 00:37:06;;;;;;;2.17;1.80;;;14.20;99.90;;;;;;5432884;26;20604;-71
2024/04/12 00:39:38;;;;;;;1.93;1.73;;;14.10;99.90;;;;;;5446374;26;20228;-72
2024/04/12 00:42:07;;;;;;;3.23;1.77;;;14.10;99.90;;;;;;5435312;26;20278;-71
2024/04/12 00:44:38;;;;;;;2.73;1.63;;;14.10;99.90;;;;;;5410386;26;20598;-71
2024/04/12 00:47:10;;;;;;;1.70;1.60;;;14.10;99.90;;;;;;5410015;26;20272;-71
2024/04/12 00:49:41;;;;;;;2.83;2.07;;;14.10;99.90;;;;;;5410585;26;20225;-72
2024/04/12 00:52:07;;;;;;;2.23;1.77;;;14.10;99.90;;;;;;5440213;26;20795;-71
2024/04/12 00:54:42;;;;;;;2.47;1.83;;;14.00;99.90;;;;;;5446429;26;20228;-71
2024/04/12 00:57:09;;;;;;;2.87;1.63;;;14.00;99.90;;;;;;5433658;26;20262;-72
2024/04/12 00:59:38;;;;;;;5.20;1.73;;;14.00;99.90;;;;;;5482692;26;20465;-72
2024/04/12 01:02:08;;;;;;;1.90;1.40;;;14.00;99.90;;;;;;5476808;26;20254;-72
2024/04/12 01:04:38;;;;;;;3.43;2.03;;;14.00;99.90;;;;;;5446032;26;20344;-72
2024/04/12 01:07:05;;;;;;;2.93;1.70;;;14.00;99.90;;;;;;5430386;26;20864;-72
2024/04/12 01:09:35;;;;;;;2.50;1.73;;;14.10;99.90;;;;;;5410657;26;20310;-71
2024/04/12 01:12:06;;;;;;;3.20;2.00;;;14.20;99.90;;;;;;5434848;26;20844;-72
2024/04/12 01:14:35;;;;;;;3.57;1.70;;;14.20;99.90;;;;;;5441233;26;20279;-72
2024/04/12 01:17:02;;;;;;;3.00;1.93;;;14.20;99.90;;;;;;5445920;26;20236;-72
2024/04/12 01:19:30;;;;;;;2.37;2.03;;;14.20;99.90;;;;;;5446007;26;20228;-72
2024/04/12 01:21:56;;;;;;;3.37;2.27;;;14.20;99.90;;;;;;5424410;26;20280;-72
2024/04/12 01:24:26;;;;;;;3.07;2.00;;;14.30;99.90;;;;;;5424785;26;20236;-72
2024/04/12 01:26:56;;;;;;;3.20;1.80;;;14.30;99.90;;;;;;5446014;26;20262;-73
2024/04/12 01:29:25;;;;;;;2.20;2.00;;;14.30;99.90;;;;;;5446135;26;20228;-72
2024/04/12 01:31:53;;;;;;;2.20;1.50;;;14.30;99.90;;;;;;5446150;26;20323;-72
2024/04/12 01:34:22;;;;;;;3.07;1.97;;;14.40;99.90;;;;;;5445746;26;20687;-72
2024/04/12 01:36:51;;;;;;;2.27;1.70;;;14.30;99.90;;;;;;5445509;26;20282;-73
2024/04/12 01:39:21;;;;;;;3.00;2.20;;;14.40;99.90;;;;;;5445741;26;20228;-72
2024/04/12 01:41:47;;;;;;;8.03;1.83;;;14.30;99.90;;;;;;5438581;26;20224;-72
2024/04/12 01:44:24;;;;;;;2.87;1.80;;;14.30;99.90;;;;;;5409760;26;20293;-72
2024/04/12 01:46:52;;;;;;;2.07;1.87;;;14.30;99.90;;;;;;5410406;26;20276;-72
2024/04/12 01:49:22;;;;;;;3.77;1.63;;;14.30;99.90;;;;;;5409793;26;20233;-73
2024/04/12 01:51:48;;;;;;;1.93;1.83;;;14.30;99.90;;;;;;5421017;26;20355;-72
2024/04/12 01:54:17;;;;;;;3.70;1.80;;;14.30;99.90;;;;;;5445454;26;20841;-72
2024/04/12 01:56:47;;;;;;;2.93;1.90;;;14.30;99.90;;;;;;5445780;26;20263;-72
2024/04/12 01:59:21;;;;;;;2.97;1.83;;;14.30;99.90;;;;;;5421006;26;20326;-73
2024/04/12 02:01:48;;;;;;;1.80;1.70;;;14.20;99.90;;;;;;5445439;26;20813;-73
2024/04/12 02:04:18;;;;;;;5.33;1.73;;;14.10;99.90;;;;;;5442408;26;20248;-73
2024/04/12 02:06:44;;;;;;;3.00;1.80;;;14.00;99.90;;;;;;5442269;26;20306;-74
2024/04/12 02:09:14;;;;;;;3.70;1.70;;;14.00;99.90;;;;;;5434317;26;20302;-73
2024/04/12 02:11:41;;;;;;;3.00;2.00;;;14.00;99.90;;;;;;5437940;26;20319;-73
2024/04/12 02:14:11;;;;;;;2.87;1.70;;;14.00;99.90;;;;;;5445007;26;20240;-73
2024/04/12 02:16:39;;;;;;;2.67;1.87;;;13.90;99.90;;;;;;5445120;26;20573;-72
2024/04/12 02:19:10;;;;;;;4.07;2.07;;;13.90;99.90;;;;;;5445000;26;20332;-73
2024/04/12 02:21:38;;;;;;;3.37;1.83;;;13.80;99.90;;;;;;5438105;26;20240;-73
2024/04/12 02:24:08;;;;;;;2.23;1.70;;;13.80;99.90;;;;;;5425865;26;20345;-72
2024/04/12 02:26:35;;;;;;;3.43;1.87;;;13.70;99.90;;;;;;5440613;26;20275;-72
2024/04/12 02:29:05;;;;;;;2.00;1.70;;;13.70;99.90;;;;;;5445150;26;20225;-72
2024/04/12 02:31:31;;;;;;;2.20;1.83;;;13.70;99.90;;;;;;5445351;26;20288;-73
2024/04/12 02:34:02;;;;;;;2.27;1.87;;;13.70;99.90;;;;;;5434628;26;20331;-74
2024/04/12 02:36:30;;;;;;;3.60;2.00;;;13.80;99.90;;;;;;5408882;26;20765;-74
2024/04/12 02:39:04;;;;;;;2.87;2.00;;;13.70;99.90;;;;;;5440718;26;20769;-73
2024/04/12 02:41:37;;;;;;;5.03;1.87;;;13.70;99.90;;;;;;5443410;26;20565;-73
2024/04/12 02:44:06;;;;;;;1.87;1.77;;;13.70;99.90;;;;;;5409404;26;20237;-73
2024/04/12 02:46:32;;;;;;;1.90;1.70;;;13.80;99.90;;;;;;5409645;26;20289;-73
2024/04/12 02:49:10;;;;;;;2.40;1.60;;;13.80;99.90;;;;;;5424654;26;20244;-73
2024/04/12 02:51:36;;;;;;;3.63;2.03;;;13.80;99.90;;;;;;5444419;26;20275;-73
2024/04/12 02:54:05;;;;;;;2.87;1.90;;;13.80;99.90;;;;;;5418835;26;20618;-73
2024/04/12 02:56:33;;;;;;;3.53;2.00;;;13.70;99.90;;;;;;5426250;26;20258;-73
2024/04/12 02:59:02;;;;;;;4.07;2.10;;;13.70;99.90;;;;;;5420941;26;20345;-76
2024/04/12 03:01:28;;;;;;;2.90;1.80;;;13.60;99.90;;;;;;5421954;26;20274;-74
2024/04/12 03:03:58;;;;;;;4.23;2.17;;;13.60;99.90;;;;;;5444481;26;20283;-74
2024/04/12 03:06:31;;;;;;;3.00;2.20;;;13.60;99.90;;;;;;5443910;26;20228;-74
2024/04/12 03:09:02;;;;;;;2.87;2.00;;;13.50;99.90;;;;;;5443300;26;20292;-74
2024/04/12 03:11:33;;;;;;;3.43;1.93;;;13.60;99.90;;;;;;5443605;26;20290;-72
2024/04/12 03:14:08;;;;;;;2.73;2.07;;;13.60;99.90;;;;;;5444017;26;20228;-72
2024/04/12 03:16:35;;;;;;;5.10;2.33;;;13.60;99.90;;;;;;5444106;26;20263;-75
2024/04/12 03:19:07;;;;;;;4.63;2.53;;;13.50;99.90;;;;;;5443840;26;20225;-73
2024/04/12 03:21:36;;;;;;;4.90;2.23;;;13.50;99.90;;;;;;5429805;26;20232;-73
2024/04/12 03:24:05;;;;;;;5.07;3.03;;;13.50;99.90;;;;;;5406354;26;20691;-73
2024/04/12 03:26:31;;;;;;;3.23;2.70;;;13.50;99.90;;;;;;5404604;26;20233;-73
2024/04/12 03:29:05;;;;;;;4.43;2.60;;;13.60;99.90;;;;;;5403114;26;20229;-73
2024/04/12 03:31:33;;;;;;;3.73;2.90;;;13.60;99.90;;;;;;5403246;26;20241;-73
2024/04/12 03:34:06;;;;;;;3.40;3.00;;;13.60;99.90;;;;;;5402971;26;20237;-74
2024/04/12 03:36:53;;;;;;;4.53;3.43;;;13.60;99.90;;;;;;5433845;26;20229;-73
2024/04/12 03:39:28;;;;;;;3.43;3.13;;;13.60;99.90;;;;;;5402965;26;20835;-73
2024/04/12 03:41:59;;;;;;;3.30;3.00;;;13.50;99.90;;;;;;5410767;26;20232;-74
2024/04/12 03:44:30;;;;;;;4.53;3.07;;;13.60;99.90;;;;;;5439297;26;20272;-73
2024/04/12 03:46:59;;;;;;;4.40;3.53;;;13.60;99.90;;;;;;5438861;26;20252;-73
2024/04/12 03:49:28;;;;;;;3.60;3.30;;;13.60;99.90;;;;;;5439039;26;20263;-73
2024/04/12 03:51:57;;;;;;;4.93;3.60;;;13.60;99.90;;;;;;5437887;26;20762;-73
2024/04/12 03:54:30;;;;;;;3.63;3.33;;;13.60;99.90;;;;;;5438419;26;20707;-73
2024/04/12 03:56:57;;;;;;;3.70;3.40;;;13.60;99.90;;;;;;5437907;26;20220;-73
2024/04/12 03:59:28;;;;;;;3.87;3.37;;;13.60;99.90;;;;;;5437842;26;20252;-73
2024/04/12 04:01:57;;;;;;;4.03;3.30;;;13.60;99.90;;;;;;5441446;26;20311;-73
2024/04/12 04:04:37;;;;;;;5.37;4.20;;;13.60;99.90;;;;;;5441211;26;20275;-73
2024/04/12 04:07:06;;;;;;;5.20;3.43;;;13.60;99.90;;;;;;5437951;26;20605;-72
2024/04/12 04:09:35;;;;;;;6.07;5.57;;;13.60;99.90;;;;;;5429926;26;20240;-72
2024/04/12 04:12:01;;;;;;;4.10;3.70;;;13.60;99.90;;;;;;5434128;26;20282;-73
2024/04/12 04:14:32;;;;;;;4.87;3.80;;;13.50;99.90;;;;;;5428612;26;20240;-73
2024/04/12 04:17:00;;;;;;;5.40;4.07;;;13.50;99.90;;;;;;5426292;26;20232;-73
2024/04/12 04:19:33;;;;;;;4.07;3.67;;;13.50;99.90;;;;;;5429685;26;20236;-73
2024/04/12 04:22:01;;;;;;;5.03;4.13;;;13.50;99.90;;;;;;5434608;26;20236;-73
2024/04/12 04:24:34;;;;;;;4.80;4.07;;;13.50;99.90;;;;;;5418658;26;20241;-72
2024/04/12 04:27:02;;;;;;;3.87;3.50;;;13.50;99.90;;;;;;5409816;26;20271;-72
2024/04/12 04:29:34;;;;;;;8.13;4.30;;;13.60;99.90;;;;;;5409809;26;20588;-72
2024/04/12 04:32:01;;;;;;;3.97;3.63;;;13.60;99.90;;;;;;5409298;26;20229;-72
2024/04/12 04:34:29;;;;;;;5.33;4.20;;;13.60;99.90;;;;;;5416858;26;20240;-73
2024/04/12 04:36:56;;;;;;;4.20;3.80;;;13.60;99.90;;;;;;5445012;26;20228;-72
2024/04/12 04:39:25;;;;;;;4.47;3.90;;;13.60;99.90;;;;;;5445171;26;20212;-73
2024/04/12 04:41:54;;;;;;;6.17;3.60;;;13.60;99.90;;;;;;5445437;26;20232;-72
2024/04/12 04:44:22;;;;;;;4.33;3.80;;;13.60;99.90;;;;;;5439724;26;20237;-73
2024/04/12 04:46:50;;;;;;;3.93;3.60;;;13.60;99.90;;;;;;5416178;26;20237;-73
2024/04/12 04:49:20;;;;;;;4.53;3.87;;;13.60;99.90;;;;;;5423871;26;21166;-73
2024/04/12 04:51:48;;;;;;;4.40;3.93;;;13.60;99.90;;;;;;5443851;26;20233;-72
2024/04/12 04:54:19;;;;;;;6.83;3.90;;;13.60;99.90;;;;;;5433505;26;20266;-73
2024/04/12 04:56:45;;;;;;;6.07;4.40;;;13.60;99.90;;;;;;5414122;26;20249;-73
2024/04/12 04:59:26;;;;;;;5.77;4.40;;;13.60;99.90;;;;;;5425741;26;20593;-73
2024/04/12 05:01:52;;;;;;;4.57;4.17;;;13.60;99.90;;;;;;5424332;26;20349;-72
2024/04/12 05:04:22;;;;;;;4.13;3.73;;;13.70;99.90;;;;;;5420386;26;20241;-73
2024/04/12 05:06:50;;;;;;;5.20;4.53;;;13.70;99.90;;;;;;5423041;26;20233;-73
2024/04/12 05:09:21;;;;;;;5.87;4.30;;;13.70;99.90;;;;;;5422113;26;20229;-73
2024/04/12 05:11:49;;;;;;;5.07;4.60;;;13.70;99.90;;;;;;5431045;26;21192;-73
2024/04/12 05:17:03;;;;;;;5.23;4.73;;;13.70;99.90;;;;;;5423448;26;20580;-72
2024/04/12 05:19:31;;;;;;;5.70;4.90;;;13.80;99.90;;;;;;5427384;26;20338;-72
2024/04/12 05:22:03;;;;;;;12.67;5.00;;;13.80;99.90;;;;;;5427222;26;20248;-72
2024/04/12 05:24:29;;;;;;;6.07;5.00;;;13.80;99.90;;;;;;5428188;26;21088;-72
2024/04/12 05:27:01;;;;;;;5.87;5.13;;;13.80;99.90;;;;;;5433466;26;20241;-72
2024/04/12 05:29:30;;;;;;;6.00;5.40;;;13.80;99.90;;;;;;5428890;26;20233;-73
2024/04/12 05:31:59;;;;;;;8.80;5.00;;;13.80;99.90;;;;;;5422307;26;20240;-72
2024/04/12 05:34:26;;;;;;;5.80;5.30;;;13.80;99.90;;;;;;5437088;26;20244;-73
2024/04/12 05:36:55;;;;;;;6.77;6.03;;;13.80;99.90;;;;;;5434377;26;20238;-72
2024/04/12 05:39:22;;;;;;;6.93;6.07;;;13.90;99.90;;;;;;5435444;26;20726;-72
2024/04/12 05:41:53;;;;;;;6.17;5.67;;;13.90;99.90;;;;;;5431216;26;20247;-72
2024/04/12 05:44:19;;;;;;;5.80;5.20;;;13.90;99.90;;;;;;5427870;26;20350;-73
2024/04/12 05:46:50;;;;;;;5.83;5.23;;;13.90;99.90;;;;;;5434198;26;20249;-72
2024/04/12 05:49:17;;;;;;;5.77;5.17;;;13.90;99.90;;;;;;5430160;26;20828;-72
2024/04/12 05:51:45;;;;;;;7.40;5.90;;;13.90;99.90;;;;;;5436564;26;20714;-72
2024/04/12 05:54:15;;;;;;;6.07;5.37;;;13.90;99.90;;;;;;5430093;26;20727;-73
2024/04/12 05:56:46;;;;;;;7.23;6.30;;;14.00;99.90;;;;;;5427620;26;20249;-73
2024/04/12 05:59:13;;;;;;;7.50;5.40;;;14.00;99.90;;;;;;5424063;26;20325;-73
2024/04/12 06:01:45;;;;;;;6.37;5.87;;;14.00;99.90;;;;;;5427428;26;20239;-73
2024/04/12 06:04:18;;;;;;;9.70;5.90;;;14.00;99.90;;;;;;5426406;26;20668;-72
2024/04/12 06:06:47;;;;;;;10.60;5.53;;;13.90;99.90;;;;;;5427916;26;20247;-72
2024/04/12 06:09:19;;;;;;;6.33;5.43;;;13.90;99.90;;;;;;5417977;26;20238;-73
2024/04/12 06:11:50;;;;;;;8.43;5.40;;;13.90;99.90;;;;;;5434084;26;20244;-72
2024/04/12 06:14:17;;;;;;;9.80;5.47;;;13.90;99.90;;;;;;5426241;26;20228;-73
2024/04/12 06:16:46;;;;;;;8.13;5.47;;;13.90;99.90;;;;;;5429267;26;20233;-73
2024/04/12 06:19:14;;;;;;;6.23;5.07;;;14.00;99.90;;;;;;5426363;26;20237;-72
2024/04/12 06:21:45;;;;;;;6.00;5.40;;;14.00;99.90;;;;;;5422653;26;20275;-73
2024/04/12 06:24:15;;;;;;;6.20;5.30;;;14.00;99.90;;;;;;5424714;26;20235;-72
2024/04/12 06:26:47;;;;;;;5.30;4.90;;;14.00;99.90;;;;;;5421853;26;20276;-73
2024/04/12 06:29:16;;;;;;;6.10;5.50;;;14.00;99.90;;;;;;5422036;26;20280;-73
2024/04/12 06:31:46;;;;;;;5.93;5.37;;;14.00;99.90;;;;;;5421874;26;20734;-72
2024/04/12 06:34:17;;;;;;;5.57;4.93;;;14.00;99.90;;;;;;5422169;26;20236;-73
2024/04/12 06:36:55;;;;;;;6.33;5.17;;;14.00;99.90;;;;;;5428868;26;20232;-73
2024/04/12 06:39:26;;;;;;;5.10;4.70;;;13.90;99.90;;;;;;5433435;26;20282;-72
2024/04/12 06:41:55;;;;;;;5.57;5.07;;;14.00;99.90;;;;;;5433039;26;20244;-72
2024/04/12 06:44:20;;;;;;;6.93;5.33;;;13.90;99.90;;;;;;5423301;26;20291;-73
2024/04/12 06:46:51;;;;;;;5.50;5.00;;;13.90;99.90;;;;;;5421474;26;20235;-73
2024/04/12 06:49:27;;;;;;;5.70;4.93;;;14.00;99.90;;;;;;5427070;26;20236;-73
2024/04/12 06:52:15;;;;;;;5.83;5.27;;;14.00;99.90;;;;;;5429006;26;20239;-72
2024/04/12 06:54:42;;;;;;;5.80;4.60;;;13.90;99.90;;;;;;5425367;26;20272;-72
2024/04/12 06:57:17;;;;;;;6.63;5.20;;;14.00;99.90;;;;;;5426359;26;20349;-73
2024/04/12 06:59:46;;;;;;;8.13;5.60;;;13.90;99.90;;;;;;5426317;26;20240;-73
2024/04/12 07:02:23;;;;;;;9.37;5.70;;;14.00;99.90;;;;;;5431290;26;20283;-72
2024/04/12 07:04:55;;;;;;;5.87;5.17;;;14.00;99.90;;;;;;5431446;26;20236;-73
2024/04/12 07:07:22;;;;;;;6.40;5.80;;;14.00;99.90;;;;;;5416762;26;20336;-73
2024/04/12 07:09:58;;;;;;;6.00;5.50;;;14.00;99.90;;;;;;5425822;26;20275;-73
2024/04/12 07:12:27;;;;;;;6.63;5.50;;;14.10;99.90;;;;;;5436757;26;20844;-72
2024/04/12 07:14:57;;;;;;;8.40;6.53;;;14.10;99.90;;;;;;5426991;26;20280;-73
2024/04/12 07:17:23;;;;;;;7.00;6.27;;;14.10;99.90;;;;;;5425329;26;20251;-72
2024/04/12 07:19:57;;;;;;;7.77;6.73;;;14.20;99.90;;;;;;5431012;26;20277;-72
2024/04/12 07:22:26;;;;;;;6.90;5.93;;;14.20;99.90;;;;;;5417384;26;20240;-72
2024/04/12 07:24:55;;;;;;;7.87;6.80;;;14.20;99.90;;;;;;5426377;26;20236;-72
2024/04/12 07:27:22;;;;;;;7.03;6.33;;;14.20;99.90;;;;;;5420016;26;20237;-73
2024/04/12 07:29:52;;;;;;;7.90;6.30;;;14.30;99.90;;;;;;5434348;26;20780;-72
2024/04/12 07:32:22;;;;;;;6.97;6.27;;;14.30;99.90;;;;;;5436658;26;20280;-72
2024/04/12 07:34:54;;;;;;;7.57;6.47;;;14.30;99.90;;;;;;5423803;26;20249;-72
2024/04/12 07:37:26;;;;;;;6.97;6.37;;;14.40;99.90;;;;;;5439661;26;20374;-73
2024/04/12 07:40:15;;;;;;;6.60;6.00;;;14.50;99.90;;;;;;5428597;26;20237;-73
2024/04/12 07:42:45;;;;;;;8.30;6.37;;;14.50;99.90;;;;;;5427550;26;20353;-73
2024/04/12 07:45:20;;;;;;;7.17;6.57;;;14.50;99.90;;;;;;5419532;26;20289;-73
2024/04/12 07:47:52;;;;;;;7.77;7.07;;;14.60;99.90;;;;;;5426271;26;20271;-72
2024/04/12 07:50:31;;;;;;;7.80;7.10;;;14.60;99.90;;;;;;5428146;26;20309;-73
2024/04/12 07:52:58;;;;;;;7.87;6.93;;;14.60;99.90;;;;;;5426013;26;20735;-72
2024/04/12 07:55:28;;;;;;;7.77;6.93;;;14.70;99.90;;;;;;5426004;26;20278;-73
2024/04/12 07:57:54;;;;;;;7.80;7.13;;;14.70;99.90;;;;;;5422520;26;20707;-72
2024/04/12 08:00:35;;;;;;;8.13;7.43;;;14.70;99.90;;;;;;5433939;26;20293;-72
2024/04/12 08:03:06;;;;;;;8.17;7.20;;;14.80;99.90;;;;;;5429730;26;20351;-73
2024/04/12 08:05:59;;;;;;;8.30;7.50;;;14.80;99.90;;;;;;5420724;26;20313;-73
2024/04/12 08:08:31;;;;;;;9.70;7.93;;;14.90;99.90;;;;;;5430812;26;20381;-72
2024/04/12 08:11:11;;;;;;;38.17;9.87;;;15.00;99.90;;;;;;5429897;26;20245;-73
2024/04/12 08:13:44;;;;;;;14.37;8.43;;;15.00;99.90;;;;;;5424954;26;20237;-72
2024/04/12 08:16:14;;;;;;;31.23;9.83;;;15.10;99.90;;;;;;5426712;26;20665;-72
2024/04/12 08:18:44;;;;;;;10.93;8.53;;;15.10;99.90;;;;;;5424107;26;20337;-72
2024/04/12 08:21:19;;;;;;;12.63;8.43;;;15.10;99.90;;;;;;5433752;26;20248;-73
2024/04/12 08:23:45;;;;;;;9.00;8.17;;;15.10;99.90;;;;;;5431498;26;20304;-73
2024/04/12 08:26:16;;;;;;;15.10;9.87;;;15.10;99.90;;;;;;5431597;26;20317;-72
2024/04/12 08:28:43;;;;;;;10.67;8.73;;;15.20;99.90;;;;;;5420671;26;20345;-73
2024/04/12 08:31:12;;;;;;;10.63;9.63;;;15.20;99.90;;;;;;5434712;26;20283;-73
2024/04/12 08:33:40;;;;;;;10.43;9.43;;;15.20;99.90;;;;;;5438708;26;20279;-73
2024/04/12 08:36:14;;;;;;;10.83;8.87;;;15.20;99.90;;;;;;5418648;26;20233;-73
2024/04/12 08:38:54;;;;;;;9.57;8.67;;;15.30;99.90;;;;;;5427610;26;21912;-73
2024/04/12 08:41:31;;;;;;;8.90;8.10;;;15.20;99.90;;;;;;5436607;26;20291;-73
2024/04/12 08:43:58;;;;;;;9.53;8.63;;;15.20;99.90;;;;;;5430017;26;20232;-73
2024/04/12 08:46:33;;;;;;;10.20;8.93;;;15.20;99.90;;;;;;5435117;26;20793;-73
2024/04/12 08:49:00;;;;;;;10.27;8.57;;;15.30;99.90;;;;;;5424088;26;20270;-73
2024/04/12 08:51:32;;;;;;;9.50;8.60;;;15.30;99.90;;;;;;5433134;26;20329;-73
2024/04/12 08:54:04;;;;;;;10.07;8.60;;;15.30;99.90;;;;;;5430512;26;20238;-72
2024/04/12 08:56:34;;;;;;;9.07;8.17;;;15.30;99.90;;;;;;5429906;26;20228;-74
2024/04/12 08:59:05;;;;;;;8.70;7.90;;;15.30;99.90;;;;;;5432136;26;20278;-72
2024/04/12 09:01:37;;;;;;;10.20;7.90;;;15.30;99.90;;;;;;5429272;26;20236;-73
2024/04/12 09:04:04;;;;;;;8.10;7.37;;;15.30;99.90;;;;;;5427622;26;20263;-73
2024/04/12 09:06:35;;;;;;;7.80;7.00;;;15.30;99.90;;;;;;5426514;26;20232;-72
2024/04/12 09:09:03;;;;;;;10.33;7.20;;;15.30;99.90;;;;;;5427978;26;20233;-72
2024/04/12 09:11:32;;;;;;;8.87;7.33;;;15.30;99.90;;;;;;5419762;26;20292;-72
2024/04/12 09:14:08;;;;;;;7.50;6.80;;;15.30;99.90;;;;;;5416830;26;20276;-72
2024/04/12 09:16:43;;;;;;;9.77;7.40;;;15.30;99.90;;;;;;5440505;26;20236;-72
2024/04/12 09:19:13;;;;;;;14.13;7.27;;;15.30;99.90;;;;;;5413524;26;20735;-74
2024/04/12 09:21:58;;;;;;;8.80;7.30;;;15.30;99.90;;;;;;5423499;26;20237;-72
2024/04/12 09:24:31;;;;;;;7.47;6.17;;;15.30;99.90;;;;;;5430767;26;20276;-73
2024/04/12 09:27:09;;;;;;;8.47;7.57;;;15.30;99.90;;;;;;5413124;26;20237;-72
2024/04/12 09:29:43;;;;;;;7.57;6.80;;;15.30;99.90;;;;;;5436926;26;20746;-73
2024/04/12 09:34:58;;;;;;;7.63;6.90;;;15.40;99.90;;;;;;5440039;26;20276;-70
2024/04/12 09:37:30;;;;;;;9.07;7.00;;;15.50;99.90;;;;;;5437970;26;20240;-72
2024/04/12 09:40:16;;;;;;;8.70;7.90;;;15.50;99.90;;;;;;5424890;26;20355;-72
2024/04/12 09:43:24;;;;;;;9.60;6.77;;;15.50;99.90;;;;;;5432065;26;20279;-72
2024/04/12 09:45:45;;;;;;;7.10;6.40;;;15.50;99.90;;;;;;5427503;26;20321;-72
2024/04/12 10:38:14;;;;;;;5.17;4.67;;;16.20;99.90;;;;;;5446822;26;20769;-71
2024/04/12 10:40:43;;;;;;;5.60;5.10;;;16.20;99.90;;;;;;5445048;26;20331;-72
2024/04/12 10:43:13;;;;;;;5.97;4.67;;;16.20;99.90;;;;;;5444641;26;20232;-71
2024/04/12 10:45:48;;;;;;;5.60;5.10;;;16.30;99.90;;;;;;5445257;26;20228;-71
2024/04/12 10:48:21;;;;;;;6.60;5.10;;;16.30;99.90;;;;;;5444746;26;20270;-72
2024/04/12 10:50:48;;;;;;;6.00;5.23;;;16.30;99.90;;;;;;5445040;26;20710;-72
2024/04/12 10:53:17;;;;;;;5.50;5.00;;;16.30;99.90;;;;;;5444447;26;20275;-71
2024/04/12 10:55:44;;;;;;;5.97;5.20;;;16.30;99.90;;;;;;5444787;26;20369;-71
2024/04/12 10:58:14;;;;;;;5.73;5.13;;;16.30;99.90;;;;;;5444856;26;20240;-72
2024/04/12 11:00:47;;;;;;;7.87;5.23;;;16.40;99.90;;;;;;5444907;26;20266;-72
2024/04/12 11:03:17;;;;;;;9.87;6.00;;;16.40;99.90;;;;;;5444466;26;20626;-72
2024/04/12 11:05:47;;;;;;;5.60;5.03;;;16.50;99.90;;;;;;5444443;26;20699;-72
2024/04/12 11:08:16;;;;;;;6.80;5.67;;;16.50;99.90;;;;;;5443896;26;20236;-72
2024/04/12 11:10:54;;;;;;;5.47;4.97;;;16.60;99.90;;;;;;5444655;26;20566;-72
2024/04/12 11:13:29;;;;;;;5.40;4.80;;;16.60;99.90;;;;;;5444510;26;20283;-71
2024/04/12 11:32:42;;;;;;;7.37;4.90;;;17.10;99.90;;;;;;5414461;26;20275;-72
2024/04/12 11:35:15;;;;;;;5.10;4.70;;;17.10;99.90;;;;;;5411673;26;20237;-72
2024/04/12 11:37:43;;;;;;;4.60;4.07;;;17.10;99.90;;;;;;5411371;26;20762;-72
2024/04/12 11:40:16;;;;;;;3.70;3.40;;;17.10;99.90;;;;;;5411393;26;20268;-72
2024/04/12 11:42:47;;;;;;;3.90;3.40;;;17.20;99.90;;;;;;5431001;26;20489;-72
2024/04/12 11:45:18;;;;;;;5.33;3.43;;;17.30;99.90;;;;;;5447139;26;20671;-72
2024/04/12 11:47:47;;;;;;;4.83;3.73;;;17.40;99.90;;;;;;5447543;26;20274;-72
2024/04/12 11:50:17;;;;;;;4.70;3.67;;;17.50;99.90;;;;;;5447225;26;20259;-72
2024/04/12 11:52:43;;;;;;;3.93;3.60;;;17.60;99.90;;;;;;5447299;26;20648;-72
2024/04/12 11:55:12;;;;;;;3.70;3.40;;;17.70;99.90;;;;;;5447410;26;20401;-72
2024/04/12 11:57:41;;;;;;;3.73;3.20;;;18.00;99.90;;;;;;5447216;26;20291;-72
2024/04/12 12:00:11;;;;;;;4.00;3.60;;;18.10;99.90;;;;;;5447552;26;20235;-72
2024/04/12 12:02:42;;;;;;;3.73;3.43;;;18.30;99.90;;;;;;5447482;26;20232;-72
2024/04/12 12:05:16;;;;;;;3.17;2.87;;;18.40;99.90;;;;;;5447279;26;20258;-72
2024/04/12 12:07:44;;;;;;;3.20;3.00;;;18.50;99.90;;;;;;5447085;26;20344;-72
2024/04/12 12:10:13;;;;;;;3.67;3.00;;;18.80;99.90;;;;;;5447187;26;20232;-72
2024/04/12 12:12:39;;;;;;;3.90;3.30;;;19.20;99.90;;;;;;5460685;26;20246;-72
2024/04/12 12:15:13;;;;;;;4.20;3.33;;;19.30;99.90;;;;;;5483568;26;20219;-72
2024/04/12 12:17:40;;;;;;;4.47;3.30;;;19.30;99.90;;;;;;5483506;26;20231;-72
2024/04/12 12:20:09;;;;;;;7.57;3.17;;;19.50;99.90;;;;;;5449773;26;20286;-72
2024/04/12 12:22:38;;;;;;;3.77;3.00;;;19.60;99.90;;;;;;5447000;26;20472;-72
2024/04/12 12:25:07;;;;;;;3.90;2.90;;;19.70;99.90;;;;;;5447028;26;20232;-71
2024/04/12 12:27:34;;;;;;;6.47;3.50;;;19.50;99.90;;;;;;5446463;26;20228;-72
2024/04/12 12:30:13;;;;;;;3.30;3.10;;;19.50;99.90;;;;;;5447168;26;20303;-72
2024/04/12 12:32:40;;;;;;;3.40;3.10;;;19.30;99.90;;;;;;5447084;26;20224;-71
2024/04/12 12:35:09;;;;;;;3.77;2.97;;;19.30;99.90;;;;;;5446741;26;20707;-71
2024/04/12 12:37:37;;;;;;;15.00;3.70;;;19.40;99.90;;;;;;5446945;26;20279;-72
2024/04/12 12:40:13;;;;;;;4.63;3.37;;;19.50;99.90;;;;;;5446903;26;20299;-72
2024/04/12 12:42:39;;;;;;;3.13;2.80;;;19.50;99.90;;;;;;5447019;26;20733;-72
2024/04/12 12:45:11;;;;;;;4.17;3.00;;;19.60;99.90;;;;;;5446567;26;20241;-72
2024/04/12 12:47:37;;;;;;;3.10;2.90;;;19.70;99.90;;;;;;5446553;26;20228;-72
2024/04/12 12:50:07;;;;;;;2.97;2.77;;;19.70;99.90;;;;;;5446136;26;20224;-72
2024/04/12 12:52:32;;;;;;;2.93;2.73;;;19.80;99.90;;;;;;5446141;26;20232;-72
2024/04/12 12:55:04;;;;;;;2.77;2.57;;;19.80;99.90;;;;;;5446401;26;20718;-71
2024/04/12 12:57:38;;;;;;;3.13;2.70;;;19.90;99.90;;;;;;5446479;26;20598;-72
2024/04/12 13:00:18;;;;;;;3.63;3.20;;;19.90;99.90;;;;;;5446149;26;20561;-72
2024/04/12 13:02:44;;;;;;;3.23;2.93;;;19.90;99.90;;;;;;5446334;26;20581;-72
2024/04/12 13:05:14;;;;;;;2.73;2.53;;;19.90;99.90;;;;;;5446092;26;20224;-72
2024/04/12 13:07:40;;;;;;;3.37;3.07;;;19.90;99.90;;;;;;5446004;26;21062;-72
2024/04/12 13:10:12;;;;;;;2.47;2.37;;;19.80;99.90;;;;;;5477580;26;20651;-72
2024/04/12 13:12:38;;;;;;;2.83;2.47;;;19.70;99.90;;;;;;5464158;26;20224;-72
2024/04/12 13:15:12;;;;;;;4.73;2.53;;;19.70;99.90;;;;;;5445621;26;20832;-72
2024/04/12 13:17:38;;;;;;;3.50;2.47;;;19.70;99.90;;;;;;5446313;26;20232;-72
2024/04/12 13:20:18;;;;;;;2.97;2.70;;;19.70;99.90;;;;;;5445695;26;20232;-72
2024/04/12 13:22:44;;;;;;;3.13;2.30;;;19.80;99.90;;;;;;5445813;26;20232;-72
2024/04/12 13:25:15;;;;;;;3.23;2.20;;;19.80;99.90;;;;;;5445810;26;20271;-72
2024/04/12 13:27:46;;;;;;;2.97;2.50;;;19.80;99.90;;;;;;5410359;26;20234;-72
2024/04/12 13:30:17;;;;;;;5.20;2.57;;;19.70;99.90;;;;;;5409967;26;20284;-72
2024/04/12 13:32:43;;;;;;;2.90;2.40;;;19.70;99.90;;;;;;5410213;26;20577;-72
2024/04/12 13:35:12;;;;;;;5.43;2.77;;;19.60;99.90;;;;;;5410273;26;20272;-71
2024/04/12 13:37:38;;;;;;;4.63;2.60;;;19.60;99.90;;;;;;5408819;26;20233;-72
2024/04/12 13:40:10;;;;;;;3.33;2.50;;;19.70;99.90;;;;;;5410226;26;20225;-72
2024/04/12 13:42:39;;;;;;;3.07;2.50;;;19.60;99.90;;;;;;5428615;26;20232;-72
2024/04/12 13:53:32;;;;;;;2.70;2.50;;;19.80;99.90;;;;;;5448135;26;20270;-72
2024/04/12 13:56:19;;;;;;;2.90;2.50;;;19.90;99.90;;;;;;5446216;26;20287;-72
2024/04/12 13:58:49;;;;;;;2.87;2.67;;;20.00;99.90;;;;;;5445895;26;20251;-72
2024/04/12 14:01:22;;;;;;;2.73;2.53;;;20.10;99.90;;;;;;5446089;26;20244;-72
2024/04/12 14:03:49;;;;;;;2.70;2.50;;;20.10;99.90;;;;;;5446006;26;20282;-72
2024/04/12 14:06:18;;;;;;;3.30;2.50;;;20.20;99.90;;;;;;5475835;26;20307;-72
2024/04/12 14:08:45;;;;;;;3.03;2.77;;;20.20;99.90;;;;;;5482186;26;20224;-72
2024/04/12 14:11:13;;;;;;;2.60;2.40;;;20.30;99.90;;;;;;5469723;26;20298;-72
2024/04/12 14:13:39;;;;;;;2.83;2.60;;;20.20;99.90;;;;;;5445788;26;20282;-72
2024/04/12 14:16:11;;;;;;;5.87;2.53;;;20.20;99.90;;;;;;5445432;26;20232;-72
2024/04/12 14:18:38;;;;;;;5.70;2.57;;;20.20;99.90;;;;;;5445574;26;20228;-72
2024/04/12 14:21:07;;;;;;;3.28;2.53;;;20.20;99.90;;;;;;5444921;26;20266;-73
2024/04/12 14:23:33;;;;;;;4.60;2.80;;;20.20;99.90;;;;;;5445294;26;20233;-72